Time;durP1;ratioP1;P1;durP2;ratioP2;P2;SDS_P1;SDS_P2;PMS_P1;PMS_P2;Temp;Humidity;BMP_temperature;BMP_pressure;BME280_temperature;BME280_humidity;BME280_pressure;Samples;Min_cycle;Max_cycle;Signal;HPM_P1;HPM_P2
2024/01/29 00:03:56;;;;;;;5.35;3.67;;;;;;;;;;8254356;28;20033;-57
2024/01/29 00:07:57;;;;;;;6.00;3.30;;;;;;;;;;8244655;28;20033;-58
2024/01/29 00:11:57;;;;;;;4.13;3.53;;;;;;;;;;8250358;28;20528;-59
2024/01/29 00:15:58;;;;;;;4.35;3.33;;;;;;;;;;8271972;28;20038;-58
2024/01/29 00:19:59;;;;;;;5.47;3.03;;;;;;;;;;8264066;28;20512;-58
2024/01/29 00:24:00;;;;;;;4.05;3.10;;;;;;;;;;8266334;28;20076;-59
2024/01/29 00:28:00;;;;;;;6.07;3.55;;;;;;;;;;8267479;28;20494;-58
2024/01/29 00:32:01;;;;;;;6.45;3.90;;;;;;;;;;8266131;28;20040;-59
2024/01/29 00:36:01;;;;;;;6.72;3.83;;;;;;;;;;8272727;28;20515;-59
2024/01/29 00:40:02;;;;;;;4.77;3.27;;;;;;;;;;8270962;28;20441;-59
2024/01/29 00:44:02;;;;;;;7.95;3.58;;;;;;;;;;8270959;28;20349;-59
2024/01/29 00:48:02;;;;;;;6.03;3.38;;;;;;;;;;8271251;28;20436;-59
2024/01/29 00:52:04;;;;;;;5.65;3.80;;;;;;;;;;8265437;28;20143;-59
2024/01/29 00:56:04;;;;;;;7.18;4.10;;;;;;;;;;8250252;28;20108;-59
2024/01/29 01:00:06;;;;;;;6.85;4.10;;;;;;;;;;8250813;28;20371;-60
2024/01/29 01:04:07;;;;;;;6.05;4.18;;;;;;;;;;8250917;28;20025;-59
2024/01/29 01:08:07;;;;;;;6.93;4.30;;;;;;;;;;8247293;28;20037;-59
2024/01/29 01:12:07;;;;;;;6.15;4.10;;;;;;;;;;8244693;28;20049;-59
2024/01/29 01:16:07;;;;;;;6.43;3.90;;;;;;;;;;8249559;28;20110;-59
2024/01/29 01:20:08;;;;;;;9.80;4.85;;;;;;;;;;8247606;28;20067;-60
2024/01/29 01:24:08;;;;;;;8.13;4.50;;;;;;;;;;8246771;28;20025;-57
2024/01/29 01:28:09;;;;;;;7.82;5.47;;;;;;;;;;8246983;28;20025;-58
2024/01/29 01:32:09;;;;;;;8.47;5.83;;;;;;;;;;8248971;28;20158;-58
2024/01/29 01:36:09;;;;;;;7.30;5.07;;;;;;;;;;8247934;28;20291;-58
2024/01/29 01:40:10;;;;;;;7.38;4.53;;;;;;;;;;8246657;28;20409;-58
2024/01/29 01:44:10;;;;;;;5.53;3.60;;;;;;;;;;8247227;28;20440;-57
2024/01/29 01:48:10;;;;;;;3.78;3.08;;;;;;;;;;8248924;28;20041;-57
2024/01/29 01:52:10;;;;;;;4.05;2.92;;;;;;;;;;8247619;28;20029;-56
2024/01/29 01:56:11;;;;;;;8.07;2.90;;;;;;;;;;8252977;28;20630;-57
2024/01/29 02:00:12;;;;;;;3.22;2.75;;;;;;;;;;8246355;28;20500;-58
2024/01/29 02:04:12;;;;;;;4.10;3.00;;;;;;;;;;8248860;28;20769;-58
2024/01/29 02:08:13;;;;;;;5.07;3.65;;;;;;;;;;8253602;28;20324;-57
2024/01/29 02:12:14;;;;;;;3.33;2.85;;;;;;;;;;8253582;28;20505;-58
2024/01/29 02:16:15;;;;;;;4.22;3.33;;;;;;;;;;8255336;28;20068;-58
2024/01/29 02:20:16;;;;;;;3.30;3.00;;;;;;;;;;8254282;28;20037;-58
2024/01/29 02:24:16;;;;;;;6.22;3.28;;;;;;;;;;8253561;28;20138;-58
2024/01/29 02:28:16;;;;;;;5.95;3.95;;;;;;;;;;8245263;28;20033;-57
2024/01/29 02:32:16;;;;;;;6.25;3.40;;;;;;;;;;8252689;28;20194;-57
2024/01/29 02:36:17;;;;;;;5.28;3.40;;;;;;;;;;8254516;28;20640;-57
2024/01/29 02:40:17;;;;;;;5.72;3.88;;;;;;;;;;8256039;28;20056;-56
2024/01/29 02:44:17;;;;;;;5.63;3.50;;;;;;;;;;8255804;28;20037;-57
2024/01/29 02:48:17;;;;;;;4.88;3.47;;;;;;;;;;8251263;28;20115;-59
2024/01/29 02:52:19;;;;;;;4.72;3.80;;;;;;;;;;8260382;28;20040;-57
2024/01/29 02:56:19;;;;;;;7.22;4.18;;;;;;;;;;8256730;28;20125;-57
2024/01/29 03:00:19;;;;;;;6.15;3.88;;;;;;;;;;8256604;28;20060;-58
2024/01/29 03:04:21;;;;;;;6.35;4.13;;;;;;;;;;8261859;28;20025;-59
2024/01/29 03:08:21;;;;;;;6.75;4.00;;;;;;;;;;8281899;28;20029;-59
2024/01/29 03:12:21;;;;;;;5.88;4.00;;;;;;;;;;8283782;28;20035;-58
2024/01/29 03:16:21;;;;;;;6.32;4.20;;;;;;;;;;8264573;28;20049;-58
2024/01/29 03:20:21;;;;;;;5.95;4.15;;;;;;;;;;8243697;28;20037;-57
2024/01/29 03:24:21;;;;;;;8.13;5.70;;;;;;;;;;8251575;28;20116;-58
2024/01/29 03:28:22;;;;;;;11.68;5.95;;;;;;;;;;8240606;28;20041;-57
2024/01/29 03:32:22;;;;;;;11.68;6.55;;;;;;;;;;8251818;28;20061;-58
2024/01/29 03:36:22;;;;;;;13.52;7.10;;;;;;;;;;8248576;28;20073;-56
2024/01/29 03:40:22;;;;;;;10.48;5.85;;;;;;;;;;8253278;28;20482;-57
2024/01/29 03:44:22;;;;;;;9.20;6.03;;;;;;;;;;8252340;28;20089;-58
2024/01/29 03:48:22;;;;;;;9.20;6.00;;;;;;;;;;8246689;28;20729;-59
2024/01/29 03:52:23;;;;;;;8.63;5.80;;;;;;;;;;8245801;28;20026;-58
2024/01/29 03:56:23;;;;;;;9.38;5.07;;;;;;;;;;8251835;28;20028;-58
2024/01/29 04:00:23;;;;;;;7.65;4.93;;;;;;;;;;8252097;28;20449;-57
2024/01/29 04:04:24;;;;;;;6.53;4.47;;;;;;;;;;8253959;28;20025;-58
2024/01/29 04:08:24;;;;;;;4.95;4.28;;;;;;;;;;8241275;28;20056;-59
2024/01/29 04:12:24;;;;;;;8.53;4.43;;;;;;;;;;8242946;28;20580;-59
2024/01/29 04:16:25;;;;;;;5.88;4.60;;;;;;;;;;8266895;28;20449;-58
2024/01/29 04:20:26;;;;;;;9.98;5.20;;;;;;;;;;8268764;28;20152;-59
2024/01/29 04:24:28;;;;;;;7.18;5.15;;;;;;;;;;8266521;28;20350;-58
2024/01/29 04:28:28;;;;;;;9.75;5.57;;;;;;;;;;8248228;28;20660;-57
2024/01/29 04:32:29;;;;;;;6.72;4.53;;;;;;;;;;8248623;28;20068;-56
2024/01/29 04:36:29;;;;;;;5.68;4.35;;;;;;;;;;8242837;28;20111;-57
2024/01/29 04:40:29;;;;;;;5.27;4.33;;;;;;;;;;8244765;28;20029;-57
2024/01/29 04:44:29;;;;;;;5.75;4.45;;;;;;;;;;8242486;28;20767;-56
2024/01/29 04:48:29;;;;;;;7.97;4.57;;;;;;;;;;8245913;28;20037;-58
2024/01/29 04:52:29;;;;;;;6.25;4.43;;;;;;;;;;8245142;28;20458;-56
2024/01/29 04:56:30;;;;;;;6.47;4.88;;;;;;;;;;8244002;28;20139;-56
2024/01/29 05:00:30;;;;;;;5.90;4.50;;;;;;;;;;8249940;28;20821;-57
2024/01/29 05:04:30;;;;;;;6.65;4.13;;;;;;;;;;8246970;28;20422;-57
2024/01/29 05:08:30;;;;;;;8.20;4.82;;;;;;;;;;8243682;28;20025;-58
2024/01/29 05:12:31;;;;;;;9.50;5.63;;;;;;;;;;8245820;28;20379;-57
2024/01/29 05:16:32;;;;;;;11.73;5.93;;;;;;;;;;8243533;28;20493;-58
2024/01/29 05:20:32;;;;;;;9.20;5.50;;;;;;;;;;8249347;28;20103;-58
2024/01/29 05:24:33;;;;;;;7.95;5.03;;;;;;;;;;8246112;28;20034;-60
2024/01/29 05:28:33;;;;;;;9.30;5.88;;;;;;;;;;8251482;28;20545;-60
2024/01/29 05:32:33;;;;;;;7.30;5.20;;;;;;;;;;8248901;28;20301;-60
2024/01/29 05:36:33;;;;;;;8.33;5.47;;;;;;;;;;8262371;28;20026;-58
2024/01/29 05:40:34;;;;;;;6.93;5.38;;;;;;;;;;8276681;28;20310;-58
2024/01/29 05:44:35;;;;;;;10.68;5.18;;;;;;;;;;8277208;28;20185;-59
2024/01/29 05:48:35;;;;;;;6.40;4.78;;;;;;;;;;8272094;28;20025;-58
2024/01/29 05:52:35;;;;;;;6.57;4.70;;;;;;;;;;8276102;28;20600;-58
2024/01/29 05:56:40;;;;;;;8.55;4.57;;;;;;;;;;8275894;28;20316;-58
2024/01/29 06:00:40;;;;;;;5.22;4.53;;;;;;;;;;8266864;28;20036;-58
2024/01/29 06:04:42;;;;;;;7.43;5.20;;;;;;;;;;8269825;28;20979;-58
2024/01/29 06:08:42;;;;;;;8.02;5.00;;;;;;;;;;8268239;28;20446;-58
2024/01/29 06:12:44;;;;;;;7.15;4.95;;;;;;;;;;8270798;28;20129;-58
2024/01/29 06:16:44;;;;;;;7.75;4.97;;;;;;;;;;8270822;28;20065;-59
2024/01/29 06:20:44;;;;;;;7.07;4.95;;;;;;;;;;8268229;28;20456;-58
2024/01/29 06:24:46;;;;;;;7.88;5.07;;;;;;;;;;8271235;28;20453;-59
2024/01/29 06:28:46;;;;;;;8.32;5.30;;;;;;;;;;8273321;28;20021;-59
2024/01/29 06:32:46;;;;;;;7.75;5.22;;;;;;;;;;8272631;28;20045;-59
2024/01/29 06:36:46;;;;;;;8.10;5.53;;;;;;;;;;8254478;28;20025;-59
2024/01/29 06:40:46;;;;;;;8.48;5.70;;;;;;;;;;8244663;28;20471;-59
2024/01/29 06:44:46;;;;;;;9.20;5.10;;;;;;;;;;8252503;28;20342;-61
2024/01/29 06:48:47;;;;;;;8.35;5.20;;;;;;;;;;8280286;28;20956;-59
2024/01/29 06:52:47;;;;;;;9.52;5.18;;;;;;;;;;8284108;28;20036;-58
2024/01/29 06:56:47;;;;;;;7.07;4.47;;;;;;;;;;8281286;28;20099;-59
2024/01/29 07:00:48;;;;;;;9.45;4.75;;;;;;;;;;8279578;28;20090;-60
2024/01/29 07:04:48;;;;;;;6.25;4.70;;;;;;;;;;8284115;28;20026;-59
2024/01/29 07:08:49;;;;;;;8.47;4.40;;;;;;;;;;8274621;28;20056;-60
2024/01/29 07:12:49;;;;;;;8.45;4.45;;;;;;;;;;8273873;28;20514;-61
2024/01/29 07:16:49;;;;;;;6.05;4.20;;;;;;;;;;8256912;28;20041;-59
2024/01/29 07:20:50;;;;;;;10.63;5.18;;;;;;;;;;8253692;28;20548;-59
2024/01/29 07:24:50;;;;;;;9.82;4.88;;;;;;;;;;8258480;28;20571;-59
2024/01/29 07:28:50;;;;;;;6.47;4.53;;;;;;;;;;8258029;28;20030;-59
2024/01/29 07:32:51;;;;;;;6.93;4.53;;;;;;;;;;8257002;28;20881;-58
2024/01/29 07:36:51;;;;;;;7.43;4.88;;;;;;;;;;8254988;28;22069;-59
2024/01/29 07:40:51;;;;;;;6.55;4.53;;;;;;;;;;8263864;28;20037;-58
2024/01/29 07:44:51;;;;;;;10.32;4.40;;;;;;;;;;8257181;28;20607;-59
2024/01/29 07:48:51;;;;;;;6.35;4.30;;;;;;;;;;8249979;28;20623;-59
2024/01/29 07:52:52;;;;;;;12.75;4.63;;;;;;;;;;8252784;28;20576;-59
2024/01/29 07:56:52;;;;;;;13.30;4.95;;;;;;;;;;8255257;28;20033;-59
2024/01/29 08:00:52;;;;;;;11.00;4.75;;;;;;;;;;8252376;28;20370;-59
2024/01/29 08:04:52;;;;;;;6.93;4.85;;;;;;;;;;8251355;28;20329;-59
2024/01/29 08:08:52;;;;;;;7.25;4.78;;;;;;;;;;8253273;28;22610;-58
2024/01/29 08:12:53;;;;;;;11.43;6.97;;;;;;;;;;8253953;28;21037;-58
2024/01/29 08:16:53;;;;;;;8.07;5.97;;;;;;;;;;8254958;28;20632;-57
2024/01/29 08:20:53;;;;;;;8.05;4.72;;;;;;;;;;8256274;28;22240;-57
2024/01/29 08:24:53;;;;;;;6.28;4.40;;;;;;;;;;8252786;28;20487;-58
2024/01/29 08:28:53;;;;;;;6.90;4.43;;;;;;;;;;8251531;28;20609;-59
2024/01/29 08:32:54;;;;;;;5.95;4.40;;;;;;;;;;8250390;28;20357;-59
2024/01/29 08:36:54;;;;;;;5.75;4.38;;;;;;;;;;8252581;28;20096;-59
2024/01/29 08:40:55;;;;;;;7.82;4.40;;;;;;;;;;8252809;28;20493;-60
2024/01/29 08:44:56;;;;;;;6.72;4.70;;;;;;;;;;8251368;28;21551;-59
2024/01/29 08:48:56;;;;;;;6.07;4.80;;;;;;;;;;8252079;28;20407;-59
2024/01/29 08:52:56;;;;;;;8.00;4.88;;;;;;;;;;8251442;28;20058;-59
2024/01/29 08:56:57;;;;;;;7.90;5.27;;;;;;;;;;8251066;28;20032;-57
2024/01/29 09:00:57;;;;;;;9.18;5.03;;;;;;;;;;8251590;28;20906;-57
2024/01/29 09:04:57;;;;;;;7.95;5.32;;;;;;;;;;8253231;28;20051;-58
2024/01/29 09:08:57;;;;;;;9.15;5.20;;;;;;;;;;8264759;28;20059;-58
2024/01/29 09:12:59;;;;;;;7.15;4.50;;;;;;;;;;8279338;28;20505;-59
2024/01/29 09:16:59;;;;;;;8.65;5.30;;;;;;;;;;8276965;28;20033;-58
2024/01/29 09:20:59;;;;;;;7.00;4.57;;;;;;;;;;8280063;28;20072;-58
2024/01/29 09:24:59;;;;;;;8.43;4.03;;;;;;;;;;8284660;28;20021;-59
2024/01/29 09:28:59;;;;;;;7.25;4.32;;;;;;;;;;8283904;28;20145;-59
2024/01/29 09:32:59;;;;;;;5.72;4.15;;;;;;;;;;8288742;28;20152;-59
2024/01/29 09:37:00;;;;;;;9.70;4.60;;;;;;;;;;8277664;28;20151;-59
2024/01/29 09:41:00;;;;;;;5.80;4.22;;;;;;;;;;8249871;28;20025;-59
2024/01/29 09:45:00;;;;;;;5.00;3.72;;;;;;;;;;8250485;28;20044;-59
2024/01/29 09:49:00;;;;;;;8.85;4.70;;;;;;;;;;8248707;28;20798;-60
2024/01/29 09:53:00;;;;;;;7.72;3.90;;;;;;;;;;8251914;28;20029;-59
2024/01/29 09:57:01;;;;;;;7.47;3.77;;;;;;;;;;8246119;28;20563;-59
2024/01/29 10:01:03;;;;;;;6.57;4.57;;;;;;;;;;8245244;28;20283;-60
2024/01/29 10:05:08;;;;;;;7.05;4.45;;;;;;;;;;8249964;28;20026;-59
2024/01/29 10:09:09;;;;;;;10.75;5.60;;;;;;;;;;8246546;28;20045;-59
2024/01/29 10:13:09;;;;;;;8.18;5.95;;;;;;;;;;8247682;28;20106;-58
2024/01/29 10:17:09;;;;;;;8.40;6.13;;;;;;;;;;8246650;28;20073;-59
2024/01/29 10:21:09;;;;;;;7.95;5.40;;;;;;;;;;8280518;28;20037;-59
2024/01/29 10:25:13;;;;;;;7.20;4.00;;;;;;;;;;8281687;28;20128;-60
2024/01/29 10:29:16;;;;;;;6.63;4.23;;;;;;;;;;8276911;28;20075;-60
2024/01/29 10:33:16;;;;;;;6.68;4.03;;;;;;;;;;8272172;28;20496;-59
2024/01/29 10:37:16;;;;;;;7.28;5.43;;;;;;;;;;8268900;28;20031;-59
2024/01/29 10:41:17;;;;;;;10.20;6.53;;;;;;;;;;8254210;28;20478;-60
2024/01/29 10:45:19;;;;;;;12.18;7.85;;;;;;;;;;8255383;28;20740;-59
2024/01/29 10:49:20;;;;;;;12.75;6.97;;;;;;;;;;8254842;28;20013;-58
2024/01/29 10:53:20;;;;;;;9.85;6.50;;;;;;;;;;8256258;28;20479;-58
2024/01/29 10:57:20;;;;;;;10.02;6.60;;;;;;;;;;8251479;28;20169;-58
2024/01/29 11:01:21;;;;;;;8.88;6.07;;;;;;;;;;8253134;28;20038;-58
2024/01/29 11:05:22;;;;;;;11.48;6.22;;;;;;;;;;8255363;28;20021;-58
2024/01/29 11:09:24;;;;;;;11.23;6.78;;;;;;;;;;8249927;28;20061;-57
2024/01/29 11:13:25;;;;;;;10.60;7.07;;;;;;;;;;8248043;28;20090;-58
2024/01/29 11:17:27;;;;;;;12.57;7.28;;;;;;;;;;8250971;28;20049;-58
2024/01/29 11:21:27;;;;;;;12.85;7.90;;;;;;;;;;8249571;28;20472;-59
2024/01/29 11:25:27;;;;;;;13.27;7.68;;;;;;;;;;8254580;28;20153;-58
2024/01/29 11:29:27;;;;;;;12.25;7.47;;;;;;;;;;8249622;28;20029;-58
2024/01/29 11:33:27;;;;;;;16.45;8.25;;;;;;;;;;8244307;28;20037;-59
2024/01/29 11:37:29;;;;;;;14.25;8.05;;;;;;;;;;8244459;28;20033;-58
2024/01/29 11:41:30;;;;;;;16.90;7.63;;;;;;;;;;8246040;28;20486;-58
2024/01/29 11:45:30;;;;;;;9.32;6.65;;;;;;;;;;8244032;28;20167;-58
2024/01/29 11:49:30;;;;;;;11.07;7.03;;;;;;;;;;8246512;28;20025;-60
2024/01/29 11:53:30;;;;;;;10.20;7.25;;;;;;;;;;8243276;28;20037;-60
2024/01/29 11:57:32;;;;;;;9.95;6.90;;;;;;;;;;8239851;28;20028;-59
2024/01/29 12:01:32;;;;;;;9.68;6.78;;;;;;;;;;8242484;28;20395;-61
2024/01/29 12:05:32;;;;;;;12.02;7.57;;;;;;;;;;8242967;28;20043;-59
2024/01/29 12:09:35;;;;;;;10.47;7.17;;;;;;;;;;8238061;28;20017;-60
2024/01/29 12:13:35;;;;;;;15.05;6.85;;;;;;;;;;8240281;28;20040;-58
2024/01/29 12:17:36;;;;;;;10.32;6.63;;;;;;;;;;8240541;28;20425;-59
2024/01/29 12:21:37;;;;;;;10.02;6.93;;;;;;;;;;8243367;28;20071;-60
2024/01/29 12:25:37;;;;;;;9.00;6.65;;;;;;;;;;8243973;28;20037;-59
2024/01/29 12:29:38;;;;;;;10.13;6.10;;;;;;;;;;8241227;28;20091;-60
2024/01/29 12:33:45;;;;;;;12.77;5.80;;;;;;;;;;8243127;28;20037;-59
2024/01/29 12:37:45;;;;;;;10.00;6.07;;;;;;;;;;8246149;28;20029;-58
2024/01/29 12:41:46;;;;;;;7.70;6.13;;;;;;;;;;8243512;28;20037;-58
2024/01/29 12:45:46;;;;;;;10.25;6.25;;;;;;;;;;8248954;28;20565;-58
2024/01/29 12:49:47;;;;;;;13.25;6.22;;;;;;;;;;8248069;28;20552;-58
2024/01/29 12:53:58;;;;;;;11.95;6.25;;;;;;;;;;8251486;28;20739;-57
2024/01/29 12:57:58;;;;;;;9.18;6.43;;;;;;;;;;8250786;28;20032;-58
2024/01/29 13:01:59;;;;;;;12.75;7.15;;;;;;;;;;8247558;28;20037;-60
2024/01/29 13:05:59;;;;;;;12.40;7.35;;;;;;;;;;8243737;28;20031;-59
2024/01/29 13:10:02;;;;;;;16.02;7.15;;;;;;;;;;8250535;28;20116;-59
2024/01/29 13:14:03;;;;;;;15.07;7.97;;;;;;;;;;8259009;28;20052;-58
2024/01/29 13:18:09;;;;;;;9.38;7.10;;;;;;;;;;8261787;28;20259;-59
2024/01/29 13:22:09;;;;;;;12.32;8.05;;;;;;;;;;8264329;28;20035;-59
2024/01/29 13:26:09;;;;;;;11.93;9.30;;;;;;;;;;8261010;28;20922;-57
2024/01/29 13:30:10;;;;;;;15.70;9.38;;;;;;;;;;8259163;28;20021;-59
2024/01/29 13:34:11;;;;;;;17.63;9.35;;;;;;;;;;8249959;28;20025;-59
2024/01/29 13:38:11;;;;;;;11.88;8.45;;;;;;;;;;8250251;28;20774;-58
2024/01/29 13:42:11;;;;;;;15.45;9.07;;;;;;;;;;8243872;28;20108;-59
2024/01/29 13:46:17;;;;;;;14.30;8.95;;;;;;;;;;8239015;28;20134;-59
2024/01/29 13:50:18;;;;;;;10.68;8.00;;;;;;;;;;8241316;28;20417;-57
2024/01/29 13:54:18;;;;;;;11.55;8.68;;;;;;;;;;8237782;28;20798;-58
2024/01/29 13:58:18;;;;;;;11.25;9.02;;;;;;;;;;8249035;28;20438;-58
2024/01/29 14:02:18;;;;;;;12.27;9.02;;;;;;;;;;8245220;28;20454;-59
2024/01/29 14:06:19;;;;;;;11.48;9.60;;;;;;;;;;8248423;28;20380;-57
2024/01/29 14:10:19;;;;;;;17.83;10.75;;;;;;;;;;8242194;28;20026;-58
2024/01/29 14:14:19;;;;;;;26.50;15.23;;;;;;;;;;8244821;28;20791;-59
2024/01/29 14:18:20;;;;;;;20.83;12.05;;;;;;;;;;8240581;28;20518;-59
2024/01/29 14:22:23;;;;;;;15.32;11.23;;;;;;;;;;8246379;28;20140;-58
2024/01/29 14:26:23;;;;;;;11.20;9.25;;;;;;;;;;8244879;28;20025;-58
2024/01/29 14:30:23;;;;;;;17.20;9.57;;;;;;;;;;8252542;28;20182;-58
2024/01/29 14:34:23;;;;;;;12.43;9.13;;;;;;;;;;8250474;28;20660;-58
2024/01/29 14:38:29;;;;;;;10.95;8.75;;;;;;;;;;8238541;28;20243;-59
2024/01/29 14:42:30;;;;;;;12.98;8.68;;;;;;;;;;8243721;28;20032;-60
2024/01/29 14:46:30;;;;;;;12.52;8.63;;;;;;;;;;8249951;28;20034;-59
2024/01/29 14:50:30;;;;;;;17.02;8.68;;;;;;;;;;8243826;28;21842;-60
2024/01/29 14:54:30;;;;;;;10.82;8.13;;;;;;;;;;8246553;28;20057;-58
2024/01/29 14:58:30;;;;;;;13.60;8.63;;;;;;;;;;8243748;28;20029;-58
2024/01/29 15:02:31;;;;;;;11.25;8.45;;;;;;;;;;8247826;28;20154;-59
2024/01/29 15:06:31;;;;;;;11.10;8.30;;;;;;;;;;8244571;28;20169;-59
2024/01/29 15:10:31;;;;;;;11.73;8.43;;;;;;;;;;8235533;28;20032;-60
2024/01/29 15:14:32;;;;;;;11.82;8.40;;;;;;;;;;8235319;28;20029;-61
2024/01/29 15:18:34;;;;;;;14.57;8.75;;;;;;;;;;8237786;28;20037;-59
2024/01/29 15:22:34;;;;;;;15.68;9.07;;;;;;;;;;8241181;28;20410;-62
2024/01/29 15:26:34;;;;;;;20.23;8.88;;;;;;;;;;8242454;28;20021;-60
2024/01/29 15:30:36;;;;;;;13.70;8.50;;;;;;;;;;8251445;28;20037;-60
2024/01/29 15:34:37;;;;;;;23.30;9.23;;;;;;;;;;8255600;28;20483;-59
2024/01/29 15:38:38;;;;;;;12.50;9.32;;;;;;;;;;8257216;28;20231;-59
2024/01/29 15:42:39;;;;;;;16.38;10.45;;;;;;;;;;8255255;28;20033;-61
2024/01/29 15:46:42;;;;;;;15.13;9.88;;;;;;;;;;8252756;28;20025;-57
2024/01/29 15:50:42;;;;;;;13.93;10.32;;;;;;;;;;8258588;28;20025;-59
2024/01/29 15:54:42;;;;;;;16.38;11.93;;;;;;;;;;8269912;28;20444;-58
2024/01/29 15:58:42;;;;;;;14.57;11.05;;;;;;;;;;8265954;28;20044;-58
2024/01/29 16:02:43;;;;;;;15.95;11.27;;;;;;;;;;8265232;28;20048;-58
2024/01/29 16:06:43;;;;;;;14.50;10.07;;;;;;;;;;8274572;28;20033;-58
2024/01/29 16:10:43;;;;;;;13.77;10.50;;;;;;;;;;8269181;28;20334;-60
2024/01/29 16:14:43;;;;;;;16.55;11.05;;;;;;;;;;8272195;28;20568;-59
2024/01/29 16:18:44;;;;;;;13.52;10.43;;;;;;;;;;8271349;28;20045;-60
2024/01/29 16:22:44;;;;;;;13.05;10.40;;;;;;;;;;8272025;28;20064;-59
2024/01/29 16:26:44;;;;;;;16.13;10.48;;;;;;;;;;8276698;28;20033;-59
2024/01/29 16:30:45;;;;;;;15.15;9.93;;;;;;;;;;8273392;28;20033;-58
2024/01/29 16:34:45;;;;;;;11.88;9.32;;;;;;;;;;8270999;28;20030;-59
2024/01/29 16:38:46;;;;;;;16.38;10.40;;;;;;;;;;8280947;28;20025;-59
2024/01/29 16:42:47;;;;;;;14.77;10.15;;;;;;;;;;8280224;28;20119;-59
2024/01/29 16:46:47;;;;;;;13.45;9.50;;;;;;;;;;8280125;28;20145;-58
2024/01/29 16:50:47;;;;;;;12.68;9.43;;;;;;;;;;8270256;28;20044;-59
2024/01/29 16:54:47;;;;;;;15.50;9.48;;;;;;;;;;8256612;28;20033;-58
2024/01/29 16:58:47;;;;;;;13.23;9.35;;;;;;;;;;8256395;28;20064;-57
2024/01/29 17:02:48;;;;;;;13.68;10.10;;;;;;;;;;8278614;28;20597;-59
2024/01/29 17:06:48;;;;;;;14.48;9.65;;;;;;;;;;8280445;28;20021;-59
2024/01/29 17:10:48;;;;;;;14.75;9.93;;;;;;;;;;8277665;28;20021;-59
2024/01/29 17:14:48;;;;;;;15.60;10.13;;;;;;;;;;8279383;28;20829;-60
2024/01/29 17:18:48;;;;;;;13.43;9.85;;;;;;;;;;8277064;28;20265;-58
2024/01/29 17:22:49;;;;;;;16.17;10.57;;;;;;;;;;8256188;28;20115;-58
2024/01/29 17:26:50;;;;;;;14.70;9.90;;;;;;;;;;8260691;28;20032;-58
2024/01/29 17:30:50;;;;;;;11.93;9.02;;;;;;;;;;8262348;28;20068;-58
2024/01/29 17:34:50;;;;;;;16.90;10.25;;;;;;;;;;8262435;28;20101;-59
2024/01/29 17:38:51;;;;;;;14.32;9.63;;;;;;;;;;8252098;28;22757;-59
2024/01/29 17:42:51;;;;;;;13.32;8.73;;;;;;;;;;8259064;28;23348;-59
2024/01/29 17:46:51;;;;;;;13.02;8.48;;;;;;;;;;8254129;28;20045;-59
2024/01/29 17:50:51;;;;;;;15.38;8.57;;;;;;;;;;8259060;28;20033;-59
2024/01/29 17:54:52;;;;;;;12.73;8.75;;;;;;;;;;8253019;28;20029;-59
2024/01/29 17:58:52;;;;;;;11.98;7.68;;;;;;;;;;8259947;28;20072;-59
2024/01/29 18:02:52;;;;;;;12.37;7.47;;;;;;;;;;8253851;28;20171;-60
2024/01/29 18:06:55;;;;;;;12.25;8.85;;;;;;;;;;8248262;28;20280;-58
2024/01/29 18:10:56;;;;;;;15.68;9.45;;;;;;;;;;8257966;28;20080;-59
2024/01/29 18:14:56;;;;;;;14.88;11.18;;;;;;;;;;8274882;28;20071;-59
2024/01/29 18:18:57;;;;;;;38.50;19.10;;;;;;;;;;8269053;28;21178;-57
2024/01/29 18:22:58;;;;;;;21.00;13.38;;;;;;;;;;8275882;28;20022;-59
2024/01/29 18:26:59;;;;;;;20.48;12.05;;;;;;;;;;8262316;28;20032;-58
2024/01/29 18:30:59;;;;;;;19.13;11.07;;;;;;;;;;8248441;28;20095;-58
2024/01/29 18:34:59;;;;;;;16.73;11.07;;;;;;;;;;8236190;28;20032;-58
2024/01/29 18:39:00;;;;;;;51.22;23.92;;;;;;;;;;8231562;28;20340;-58
2024/01/29 18:43:00;;;;;;;36.53;20.48;;;;;;;;;;8241808;28;20033;-58
2024/01/29 18:47:00;;;;;;;27.00;15.80;;;;;;;;;;8239709;28;20045;-58
2024/01/29 18:51:01;;;;;;;19.92;12.57;;;;;;;;;;8244021;28;20350;-59
2024/01/29 18:55:01;;;;;;;18.85;11.48;;;;;;;;;;8251229;28;20777;-59
2024/01/29 18:59:03;;;;;;;21.48;13.57;;;;;;;;;;8248713;28;20897;-59
2024/01/29 19:03:03;;;;;;;17.27;11.55;;;;;;;;;;8249342;28;20037;-59
2024/01/29 19:07:03;;;;;;;16.05;10.65;;;;;;;;;;8241689;28;20060;-59
2024/01/29 19:11:04;;;;;;;15.83;10.83;;;;;;;;;;8230626;28;20037;-58
2024/01/29 19:15:04;;;;;;;14.40;9.80;;;;;;;;;;8233681;28;21034;-59
2024/01/29 19:19:05;;;;;;;13.13;9.25;;;;;;;;;;8226172;28;20026;-59
2024/01/29 19:23:05;;;;;;;16.42;10.90;;;;;;;;;;8225562;28;20033;-58
2024/01/29 19:27:07;;;;;;;16.77;10.55;;;;;;;;;;8227259;28;20022;-58
2024/01/29 19:31:07;;;;;;;20.73;13.85;;;;;;;;;;8225012;28;20145;-58
2024/01/29 19:35:08;;;;;;;21.33;13.88;;;;;;;;;;8238485;28;20538;-58
2024/01/29 19:39:09;;;;;;;19.42;11.73;;;;;;;;;;8234129;28;20334;-58
2024/01/29 19:43:09;;;;;;;15.60;10.38;;;;;;;;;;8263240;28;20034;-60
2024/01/29 19:47:10;;;;;;;14.93;10.27;;;;;;;;;;8268105;28;20394;-59
2024/01/29 19:51:16;;;;;;;18.13;10.32;;;;;;;;;;8267519;28;20100;-59
2024/01/29 19:55:16;;;;;;;17.08;9.75;;;;;;;;;;8268583;28;20124;-58
2024/01/29 19:59:18;;;;;;;13.70;9.43;;;;;;;;;;8261295;28;20060;-59
2024/01/29 20:03:18;;;;;;;10.77;7.90;;;;;;;;;;8230061;28;20369;-57
2024/01/29 20:07:18;;;;;;;10.40;7.15;;;;;;;;;;8226060;28;20957;-58
2024/01/29 20:11:18;;;;;;;10.65;6.53;;;;;;;;;;8226125;28;21539;-57
2024/01/29 20:15:18;;;;;;;9.52;6.45;;;;;;;;;;8229375;28;20025;-58
2024/01/29 20:19:20;;;;;;;7.43;5.05;;;;;;;;;;8235723;28;20032;-58
2024/01/29 20:23:20;;;;;;;9.82;4.97;;;;;;;;;;8238399;28;20127;-58
2024/01/29 20:27:20;;;;;;;6.75;5.05;;;;;;;;;;8236034;28;20022;-58
2024/01/29 20:31:24;;;;;;;5.05;4.43;;;;;;;;;;8239586;28;20033;-58
2024/01/29 20:35:24;;;;;;;8.45;4.93;;;;;;;;;;8232522;28;20573;-58
2024/01/29 20:39:24;;;;;;;6.28;4.10;;;;;;;;;;8223670;28;20083;-57
2024/01/29 20:43:24;;;;;;;9.70;4.60;;;;;;;;;;8223098;28;20029;-57
2024/01/29 20:47:24;;;;;;;5.80;4.60;;;;;;;;;;8223969;28;20069;-58
2024/01/29 20:51:24;;;;;;;6.20;4.07;;;;;;;;;;8227141;28;20033;-59
2024/01/29 20:55:27;;;;;;;5.82;4.43;;;;;;;;;;8217892;28;20676;-59
2024/01/29 20:59:27;;;;;;;11.98;7.35;;;;;;;;;;8221600;28;20021;-60
2024/01/29 21:03:27;;;;;;;15.20;9.70;;;;;;;;;;8226984;28;20049;-59
2024/01/29 21:07:28;;;;;;;14.85;10.68;;;;;;;;;;8232206;28;20048;-59
2024/01/29 21:11:29;;;;;;;15.77;10.93;;;;;;;;;;8227101;28;20013;-59
2024/01/29 21:15:29;;;;;;;13.27;10.73;;;;;;;;;;8232715;28;20037;-58
2024/01/29 21:19:29;;;;;;;10.98;8.55;;;;;;;;;;8232865;28;20048;-59
2024/01/29 21:23:29;;;;;;;11.25;8.52;;;;;;;;;;8223079;28;20049;-59
2024/01/29 21:27:29;;;;;;;14.00;7.82;;;;;;;;;;8227874;28;20033;-59
2024/01/29 21:31:30;;;;;;;15.30;8.77;;;;;;;;;;8222689;28;20041;-59
2024/01/29 21:35:31;;;;;;;8.60;6.63;;;;;;;;;;8236598;28;20505;-59
2024/01/29 21:39:31;;;;;;;10.43;6.57;;;;;;;;;;8226810;28;20301;-60
2024/01/29 21:43:32;;;;;;;9.98;5.53;;;;;;;;;;8221250;28;20029;-60
2024/01/29 21:47:32;;;;;;;10.88;5.90;;;;;;;;;;8222915;28;20040;-57
2024/01/29 21:51:33;;;;;;;9.43;5.60;;;;;;;;;;8220895;28;20308;-58
2024/01/29 21:55:34;;;;;;;9.55;5.90;;;;;;;;;;8222196;28;20108;-57
2024/01/29 21:59:35;;;;;;;7.22;4.65;;;;;;;;;;8221929;28;20026;-57
2024/01/29 22:03:35;;;;;;;6.95;4.68;;;;;;;;;;8225521;28;20481;-59
2024/01/29 22:07:35;;;;;;;7.28;4.50;;;;;;;;;;8229814;28;20489;-58
2024/01/29 22:11:35;;;;;;;7.40;4.40;;;;;;;;;;8236756;28;20021;-58
2024/01/29 22:15:36;;;;;;;7.65;4.47;;;;;;;;;;8237491;28;21055;-58
2024/01/29 22:19:36;;;;;;;5.90;3.72;;;;;;;;;;8244454;28;20279;-58
2024/01/29 22:23:36;;;;;;;6.47;4.25;;;;;;;;;;8239648;28;20038;-58
2024/01/29 22:27:36;;;;;;;7.13;4.20;;;;;;;;;;8247951;28;20017;-59
2024/01/29 22:31:36;;;;;;;8.02;4.13;;;;;;;;;;8248464;28;20040;-58
2024/01/29 22:35:36;;;;;;;6.65;3.58;;;;;;;;;;8241103;28;20059;-59
2024/01/29 22:39:37;;;;;;;7.60;3.60;;;;;;;;;;8230760;28;20115;-58
2024/01/29 22:43:37;;;;;;;6.35;4.28;;;;;;;;;;8231372;28;20156;-58
2024/01/29 22:47:37;;;;;;;7.97;3.50;;;;;;;;;;8231248;28;20041;-58
2024/01/29 22:51:41;;;;;;;6.70;3.90;;;;;;;;;;8235632;28;20442;-58
2024/01/29 22:55:41;;;;;;;5.57;3.45;;;;;;;;;;8244647;28;20031;-58
2024/01/29 22:59:41;;;;;;;4.38;3.10;;;;;;;;;;8244965;28;20033;-58
2024/01/29 23:03:41;;;;;;;6.90;3.40;;;;;;;;;;8243449;28;20041;-58
2024/01/29 23:07:42;;;;;;;4.90;2.80;;;;;;;;;;8245830;28;20027;-59
2024/01/29 23:11:42;;;;;;;7.32;2.85;;;;;;;;;;8252702;28;20313;-57
2024/01/29 23:15:42;;;;;;;3.53;3.08;;;;;;;;;;8245480;28;20411;-58
2024/01/29 23:19:42;;;;;;;5.70;3.90;;;;;;;;;;8236577;28;20025;-58
2024/01/29 23:23:42;;;;;;;4.93;3.20;;;;;;;;;;8244751;28;20756;-58
2024/01/29 23:27:42;;;;;;;7.80;3.53;;;;;;;;;;8242746;28;20443;-58
2024/01/29 23:31:43;;;;;;;3.42;2.70;;;;;;;;;;8240887;28;20195;-58
2024/01/29 23:35:43;;;;;;;5.72;2.60;;;;;;;;;;8241677;28;20068;-59
2024/01/29 23:39:43;;;;;;;4.63;3.00;;;;;;;;;;8245654;28;20402;-59
2024/01/29 23:43:43;;;;;;;5.78;3.20;;;;;;;;;;8249196;28;20545;-58
2024/01/29 23:47:43;;;;;;;3.08;2.50;;;;;;;;;;8248805;28;20033;-58
2024/01/29 23:51:43;;;;;;;4.38;2.72;;;;;;;;;;8249054;28;20029;-58